Portada
METAR-TAF:

METAR-TAF

Aeroports :

Nassau, Bahames

latitud: 25-03N, longitud: 077-28W, altitud: 3 m

Observació

L'informe es va fer fa 2 hores i 0 minuts, a les 01:00 UTC
Vent 4 kt del Sud
Temperatura 28°C
Humitat 79%
Pressió 1017 hPa
Visibilitat 10 km o més
Núvols disperses a una alçada de 2000 ft, Cumulonimbus.
Cel ennuvolat a una alçada de 20000 ft

METAR: MYNN 200100Z 17004KT 9999 SCT020CB BKN200 28/24 A3003 RMK CB SCT ALQDS

Hora: 23:00 (03:00 UTC)

Pronòstic

L'informe es va fer fa 5 hores i 0 minuts, a les 22:00 UTC
Pronòstic vàlid del 20 a les 00 UTC al 20 a les 24 UTC
Vent 10 kt del Sud
Visibilitat: 9000 m
Núvols disperses a una alçada de 1800 ft, Cumulonimbus.
xàfecs de pluja
Evolucionant progressivament
l' 20 a les 06 UTC al 20 a les 08 UTC
Vent 10 kt del Sud
Visibilitat 10 km o més
Escasses núvols a una alçada de 2000 ft
Cel ennuvolat a una alçada de 25000 ft

TAF: MYNN 192200Z 2000/2024 17010KT 9000 SHRA SCT018CB BECMG 2006/2008 17010KT 9999 FEW020 BKN250

Observacions i pronòstics meteorològics de més de 4000 aeroports (METAR i TAF).

Les estacions disponibles són els punts grocs i vermells al mapa.

Posi el ratolí al punt desitjat per veure el nom de l'estació.

Feu clic per veure les observacions i els pronòstics meteorològics.

Per canviar el mapa: feu clic els botons verds amb una creu de color negre per apropar; al botó verd amb un guió per allunyar la imatge; o en les fletxes verdes per a mapes adjacents.


METAR-TAF: